Jasper S — V2CQ4 — position and weather

sailwx.info

Track history (hours):
 
Tides and Currents Weather Stations Pressure Air Temp Water Temp Dewpoint Dewpoint Depression Visibility Wind Speed Wind Dir Waves Ship Positions

Jasper S

Last reported at 2014-Nov-23 13:15 UTC. Time now 2014-Nov-28 11:06 UTC.
Position N 41°22' E 029°39'.

Length 148 m; draft 8.2 m.

Type: Ship (hazmat cat A). MMSI: 305079000.

Date/timePositionNaut miles runAvg speedWind from/ knotsBaromVisibWave heightAir tempDewpointWater temp
2014-Nov-23 13:15N 41°22' E 029°39'811.7
2014-Nov-23 12:33N 41°19' E 029°29'1211.9
2014-Nov-23 11:33N 41°16' E 029°14'2110.4
2014-Nov-23 09:33N 40°58' E 028°59'1413.5
2014-Nov-23 08:32N 40°48' E 028°47'9 1.7
2014-Nov-23 03:25N 40°42' E 028°39'2 1.1
2014-Nov-23 01:19N 40°43' E 028°41'3 0.9
2014-Nov-22 21:33N 40°45' E 028°45'1211.0
2014-Nov-22 20:30N 40°56' E 028°40'1 0.1
2014-Nov-22 07:23N 40°57' E 028°41'7 6.3
2014-Nov-22 06:18N 40°51' E 028°40'  
2014-Nov-19 04:23N 38°25' E 025°28'910.7
2014-Nov-19 03:33N 38°20' E 025°18'5310.7
2014-Nov-18 22:33N 37°47' E 024°25'2610.6
2014-Nov-18 20:05N 37°27' E 024°04'610.6
2014-Nov-18 19:33N 37°22' E 023°60'1211.9
2014-Nov-18 18:33N 37°12' E 023°52'2411.8
2014-Nov-18 16:33N 36°52' E 023°37'1212.0
2014-Nov-18 15:31N 36°41' E 023°28'1311.9
2014-Nov-18 14:25N 36°30' E 023°20'1211.6
2014-Nov-18 13:21N 36°22' E 023°08'1011.9
2014-Nov-18 12:30N 36°24' E 022°55'  
Track history (hours):
 
Tides and Currents Weather Stations Pressure Air Temp Water Temp Dewpoint Dewpoint Depression Visibility Wind Speed Wind Dir Waves Ship Positions

Jasper S

Last reported at 2014-Nov-23 13:15 UTC. Time now 2014-Nov-28 11:06 UTC.
Position N 41°22' E 029°39'.

Length 148 m; draft 8.2 m.

Type: Ship (hazmat cat A). MMSI: 305079000.

Date/timePositionNaut miles runAvg speedWind from/ knotsBaromVisibWave heightAir tempDewpointWater temp
2014-Nov-23 13:15N 41°22' E 029°39'811.7
2014-Nov-23 12:33N 41°19' E 029°29'1211.9
2014-Nov-23 11:33N 41°16' E 029°14'2110.4
2014-Nov-23 09:33N 40°58' E 028°59'1413.5
2014-Nov-23 08:32N 40°48' E 028°47'9 1.7
2014-Nov-23 03:25N 40°42' E 028°39'2 1.1
2014-Nov-23 01:19N 40°43' E 028°41'3 0.9
2014-Nov-22 21:33N 40°45' E 028°45'1211.0
2014-Nov-22 20:30N 40°56' E 028°40'1 0.1
2014-Nov-22 07:23N 40°57' E 028°41'7 6.3
2014-Nov-22 06:18N 40°51' E 028°40'  
2014-Nov-19 04:23N 38°25' E 025°28'910.7
2014-Nov-19 03:33N 38°20' E 025°18'5310.7
2014-Nov-18 22:33N 37°47' E 024°25'2610.6
2014-Nov-18 20:05N 37°27' E 024°04'610.6
2014-Nov-18 19:33N 37°22' E 023°60'1211.9
2014-Nov-18 18:33N 37°12' E 023°52'2411.8
2014-Nov-18 16:33N 36°52' E 023°37'1212.0
2014-Nov-18 15:31N 36°41' E 023°28'1311.9
2014-Nov-18 14:25N 36°30' E 023°20'1211.6
2014-Nov-18 13:21N 36°22' E 023°08'1011.9
2014-Nov-18 12:30N 36°24' E 022°55'  

Dump ship's entire track history